createdAt,value
2018-07-11T00:01:07.477Z,73.42
2018-07-11T00:02:17.497Z,73.32
2018-07-11T00:03:27.257Z,73.8
2018-07-11T00:04:37.264Z,73.9
2018-07-11T00:05:47.267Z,73.9
2018-07-11T00:06:57.275Z,74.09
2018-07-11T00:08:07.311Z,73.99
2018-07-11T00:09:17.060Z,74.19
2018-07-11T00:10:26.550Z,73.8
2018-07-11T00:11:36.613Z,73.9
2018-07-11T00:12:46.669Z,73.9
2018-07-11T00:13:56.687Z,74.09
2018-07-11T00:15:06.621Z,73.99
2018-07-11T00:16:16.568Z,73.61
2018-07-11T00:17:26.587Z,73.71
2018-07-11T00:18:36.342Z,73.8
2018-07-11T00:19:46.360Z,73.61
2018-07-11T00:20:56.382Z,73.61
2018-07-11T00:22:06.150Z,73.51
2018-07-11T00:23:16.168Z,73.9
2018-07-11T00:24:25.919Z,73.51
2018-07-11T00:25:35.689Z,73.51
2018-07-11T00:26:45.766Z,73.61
2018-07-11T00:27:55.752Z,73.61
2018-07-11T00:29:05.758Z,73.71
2018-07-11T00:30:15.590Z,73.51
2018-07-11T00:31:25.349Z,73.61
2018-07-11T00:32:35.369Z,73.51
2018-07-11T00:33:45.376Z,73.8
2018-07-11T00:34:55.392Z,73.71
2018-07-11T00:36:05.400Z,73.71
2018-07-11T00:37:15.782Z,73.61
2018-07-11T00:38:26.472Z,73.61
2018-07-11T00:39:36.224Z,73.51
2018-07-11T00:40:46.240Z,73.71
2018-07-11T00:41:56.010Z,73.71
2018-07-11T00:43:06.033Z,73.9
2018-07-11T00:44:16.046Z,73.42
2018-07-11T00:45:26.063Z,73.71
2018-07-11T00:46:36.071Z,73.71
2018-07-11T00:47:46.077Z,73.51
2018-07-11T00:48:55.857Z,73.51
2018-07-11T00:50:05.914Z,73.61
2018-07-11T00:51:15.916Z,73.61
2018-07-11T00:52:25.935Z,73.9
2018-07-11T00:53:35.700Z,73.61
2018-07-11T00:54:45.705Z,73.51
2018-07-11T00:55:55.707Z,73.71
2018-07-11T00:57:05.773Z,73.61
2018-07-11T00:58:15.541Z,73.8
2018-07-11T00:59:25.403Z,73.51
2018-07-11T01:00:35.395Z,73.61
2018-07-11T01:01:45.416Z,73.61
2018-07-11T01:02:55.146Z,73.8
2018-07-11T01:04:04.898Z,73.61
2018-07-11T01:05:14.444Z,73.71
2018-07-11T01:06:24.455Z,73.8
2018-07-11T01:07:34.472Z,73.71
2018-07-11T01:08:44.479Z,73.8
2018-07-11T01:09:54.489Z,73.9
2018-07-11T01:11:04.523Z,73.61
2018-07-11T01:12:14.532Z,73.71
2018-07-11T01:13:24.545Z,73.9
2018-07-11T01:14:34.542Z,73.8
2018-07-11T01:15:44.562Z,73.51
2018-07-11T01:16:54.587Z,73.71
2018-07-11T01:18:04.593Z,73.71
2018-07-11T01:19:14.601Z,73.61
2018-07-11T01:20:24.350Z,73.9
2018-07-11T01:21:34.109Z,73.61
2018-07-11T01:22:44.115Z,73.8
2018-07-11T01:23:54.114Z,73.8
2018-07-11T01:25:04.123Z,73.8
2018-07-11T01:26:14.124Z,73.51
2018-07-11T01:27:24.137Z,73.9
2018-07-11T01:28:33.937Z,73.8
2018-07-11T01:29:43.685Z,73.51
2018-07-11T01:30:53.427Z,73.61
2018-07-11T01:32:03.421Z,73.9
2018-07-11T01:33:13.169Z,73.9
2018-07-11T01:34:23.187Z,73.9
2018-07-11T01:35:32.947Z,73.61
2018-07-11T01:36:42.692Z,73.61
2018-07-11T01:37:52.715Z,73.71
2018-07-11T01:39:02.728Z,73.51
2018-07-11T01:40:12.494Z,73.61
2018-07-11T01:41:22.491Z,73.61
2018-07-11T01:42:32.241Z,73.71
2018-07-11T01:43:41.739Z,74.29
2018-07-11T01:44:51.740Z,74.29
2018-07-11T01:46:01.493Z,74.19
2018-07-11T01:47:11.259Z,74.15
2018-07-11T01:48:21.260Z,74.15
2018-07-11T01:49:31.263Z,74.48
2018-07-11T01:50:41.024Z,74.19
2018-07-11T01:51:51.060Z,74.29
2018-07-11T01:53:01.079Z,74.19
2018-07-11T01:54:11.087Z,74.38
2018-07-11T01:55:20.848Z,74.05
2018-07-11T01:56:30.904Z,74.29
2018-07-11T01:57:40.921Z,74.19
2018-07-11T01:58:50.943Z,74.19
2018-07-11T02:00:00.945Z,74.19
2018-07-11T02:01:10.950Z,74.25
2018-07-11T02:02:20.953Z,74.29
2018-07-11T02:03:30.968Z,74.09
2018-07-11T02:04:40.965Z,74.29
2018-07-11T02:05:50.972Z,74.15
2018-07-11T02:07:00.449Z,74.09
2018-07-11T02:08:10.455Z,74.29
2018-07-11T02:09:20.453Z,74.05
2018-07-11T02:10:29.975Z,74.38
2018-07-11T02:11:39.971Z,74.09
2018-07-11T02:12:49.742Z,74.29
2018-07-11T02:13:59.769Z,74.05
2018-07-11T02:15:09.540Z,74.34
2018-07-11T02:16:19.552Z,74.05
2018-07-11T02:17:29.569Z,74.05
2018-07-11T02:18:39.323Z,74.05
2018-07-11T02:19:49.081Z,74.15
2018-07-11T02:20:58.829Z,74.34
2018-07-11T02:22:08.575Z,74.25
2018-07-11T02:23:18.328Z,74.34
2018-07-11T02:24:28.331Z,74.05
2018-07-11T02:25:38.328Z,74.34
2018-07-11T02:26:48.360Z,74.25
2018-07-11T02:27:58.109Z,74.34
2018-07-11T02:29:07.863Z,74.34
2018-07-11T02:30:17.908Z,74.05
2018-07-11T02:31:27.938Z,74.05
2018-07-11T02:32:37.963Z,74.25
2018-07-11T02:33:47.716Z,74.25
2018-07-11T02:34:57.732Z,74.25
2018-07-11T02:36:07.738Z,74.15
2018-07-11T02:37:17.539Z,74.09
2018-07-11T02:38:27.556Z,74.25
2018-07-11T02:39:37.307Z,73.86
2018-07-11T02:40:47.330Z,74.19
2018-07-11T02:41:57.092Z,74.29
2018-07-11T02:43:07.104Z,74.19
2018-07-11T02:44:16.859Z,74.19
2018-07-11T02:45:26.616Z,74.19
2018-07-11T02:46:36.638Z,74.29
2018-07-11T02:47:46.140Z,74.25
2018-07-11T02:48:55.877Z,74.29
2018-07-11T02:50:05.911Z,74.29
2018-07-11T02:51:15.913Z,74.34
2018-07-11T02:52:25.924Z,74.05
2018-07-11T02:53:35.939Z,74.34
2018-07-11T02:54:45.944Z,74.09
2018-07-11T02:55:55.969Z,74.15
2018-07-11T02:57:06.037Z,74.54
2018-07-11T02:58:16.055Z,74.15
2018-07-11T02:59:26.073Z,74.15
2018-07-11T03:00:35.842Z,74.73
2018-07-11T03:01:45.842Z,74.05
2018-07-11T03:02:55.862Z,74.25
2018-07-11T03:35:50.957Z,69.46
2018-07-11T03:37:00.948Z,68.79
2018-07-11T03:38:10.720Z,70.07
2018-07-11T03:39:20.721Z,70.7
2018-07-11T03:40:30.774Z,71.28
2018-07-11T03:41:40.533Z,71.95
2018-07-11T03:42:50.550Z,72.14
2018-07-11T03:44:00.561Z,72.66
2018-07-11T03:45:10.304Z,73.04
2018-07-11T03:46:20.299Z,73.72
2018-07-11T03:47:30.353Z,73.24
2018-07-11T03:48:40.361Z,72.85
2018-07-11T03:49:50.125Z,73.46
2018-07-11T03:51:00.149Z,73.46
2018-07-11T03:52:10.164Z,73.27
2018-07-11T03:53:20.177Z,73.46
2018-07-11T03:54:30.183Z,73.46
2018-07-11T03:55:40.177Z,73.31
2018-07-11T03:56:50.201Z,73.41
2018-07-11T03:58:00.186Z,73.06
2018-07-11T03:59:10.194Z,73.35
2018-07-11T04:00:20.218Z,73.15
2018-07-11T04:01:29.977Z,73.06
2018-07-11T04:02:40.012Z,73.35
2018-07-11T04:03:50.035Z,73.09
2018-07-11T04:05:00.209Z,73.28
2018-07-11T04:06:09.979Z,73.47
2018-07-11T04:07:19.990Z,73.57
2018-07-11T04:08:29.734Z,73.09
2018-07-11T04:09:39.489Z,73.13
2018-07-11T04:10:49.512Z,73.42
2018-07-11T04:11:59.497Z,73.61
2018-07-11T04:13:09.514Z,73.71
2018-07-11T04:14:19.526Z,73.51
2018-07-11T04:15:29.542Z,73.8
2018-07-11T04:16:39.562Z,73.94
2018-07-11T04:17:49.573Z,74.03
2018-07-11T04:18:59.579Z,73.94
2018-07-11T04:20:09.215Z,73.94
2018-07-11T04:21:18.963Z,73.07
2018-07-11T04:22:28.712Z,73.94
2018-07-11T04:23:38.718Z,73.68
2018-07-11T04:24:48.743Z,73.88
2018-07-11T04:25:58.490Z,73.74
2018-07-11T04:27:08.502Z,73.58
2018-07-11T04:28:18.512Z,73.58
2018-07-11T04:29:28.266Z,73.49
2018-07-11T04:30:38.283Z,73.58
2018-07-11T04:31:48.020Z,73.49
2018-07-11T04:32:58.029Z,73.58
2018-07-11T04:34:08.049Z,73.58
2018-07-11T04:35:18.069Z,73.49
2018-07-11T04:36:28.090Z,73.49
2018-07-11T04:37:38.091Z,73.58
2018-07-11T04:38:48.094Z,73.49
2018-07-11T04:39:58.144Z,73.58
2018-07-11T04:41:08.131Z,73.58
2018-07-11T04:42:18.158Z,73.72
2018-07-11T04:43:28.270Z,73.91
2018-07-11T04:44:38.028Z,73.78
2018-07-11T04:45:47.796Z,73.82
2018-07-11T04:46:57.791Z,73.24
2018-07-11T04:48:07.818Z,73.33
2018-07-11T04:49:17.562Z,72.95
2018-07-11T04:50:27.311Z,73.18
2018-07-11T04:51:37.074Z,72.99
2018-07-11T04:52:47.010Z,73.18
2018-07-11T04:53:57.184Z,72.99
2018-07-11T04:55:07.322Z,73.08
2018-07-11T04:56:17.357Z,73.37
2018-07-11T04:57:27.362Z,73.37
2018-07-11T04:58:37.375Z,73.27
2018-07-11T04:59:47.492Z,73.75
2018-07-11T05:00:57.496Z,73.82
2018-07-11T05:02:07.557Z,73.53
2018-07-11T05:03:17.564Z,73.53
2018-07-11T05:04:27.579Z,73.43
2018-07-11T05:05:37.328Z,73.53
2018-07-11T05:06:47.093Z,73.72
2018-07-11T05:07:56.596Z,73.85
2018-07-11T05:09:06.596Z,73.62
2018-07-11T05:10:16.346Z,74.14
2018-07-11T05:11:26.102Z,73.75
2018-07-11T05:12:36.110Z,73.95
2018-07-11T05:13:45.860Z,73.18
2018-07-11T05:14:55.613Z,73.37
2018-07-11T05:16:05.649Z,73.41
2018-07-11T05:17:15.904Z,73.02
2018-07-11T05:18:25.928Z,72.83
2018-07-11T05:19:35.687Z,72.83
2018-07-11T05:20:45.491Z,72.67
2018-07-11T05:21:55.280Z,72.96
2018-07-11T05:23:05.048Z,72.96
2018-07-11T05:24:15.090Z,72.77
2018-07-11T05:25:25.105Z,72.86
2018-07-11T05:26:34.853Z,73.06
2018-07-11T05:27:44.760Z,73.25
2018-07-11T05:28:55.033Z,73.06
2018-07-11T05:30:04.792Z,73.6
2018-07-11T05:31:14.792Z,73.6
2018-07-11T05:32:24.802Z,73.41
2018-07-11T05:33:34.800Z,73.31
2018-07-11T05:34:44.821Z,73.79
2018-07-11T05:35:54.563Z,73.89
2018-07-11T05:37:04.070Z,73.69
2018-07-11T05:38:14.127Z,73.27
2018-07-11T05:39:24.150Z,74.14
2018-07-11T05:40:34.161Z,73.18
2018-07-11T05:41:44.173Z,73.27
2018-07-11T05:42:54.162Z,73.27
2018-07-11T05:44:04.164Z,73.47
2018-07-11T05:45:14.176Z,73.66
2018-07-11T05:46:23.933Z,73.37
2018-07-11T05:47:33.940Z,73.75
2018-07-11T05:48:43.963Z,73.85
2018-07-11T05:49:54.023Z,73.85
2018-07-11T05:51:04.046Z,73.21
2018-07-11T05:52:13.857Z,73.41
2018-07-11T05:53:23.692Z,73.41
2018-07-11T05:54:33.442Z,73.6
2018-07-11T05:55:43.561Z,73.41
2018-07-11T05:56:53.490Z,73.5
2018-07-11T05:58:02.982Z,73.11
2018-07-11T05:59:12.236Z,73.25
2018-07-11T06:00:21.975Z,73.15
2018-07-11T06:01:32.080Z,73.06
2018-07-11T06:02:42.246Z,72.58
2018-07-11T06:03:52.524Z,73.15
2018-07-11T06:05:02.525Z,72.67
2018-07-11T06:06:12.273Z,72.38
2018-07-11T06:07:22.036Z,72.61
2018-07-11T06:08:32.037Z,72.8
2018-07-11T06:09:42.048Z,71.84
2018-07-11T06:10:51.805Z,72.26
2018-07-11T06:12:01.823Z,72.06
2018-07-11T06:13:11.616Z,72.26
2018-07-11T06:14:21.815Z,72.06
2018-07-11T06:15:31.826Z,72.06
2018-07-11T06:16:41.317Z,72.16
2018-07-11T06:17:51.330Z,72.26
2018-07-11T06:19:00.821Z,71.58
2018-07-11T06:20:10.831Z,71.72
2018-07-11T06:21:20.760Z,71.81
2018-07-11T06:22:30.524Z,70.98
2018-07-11T06:23:40.549Z,71.46
2018-07-11T06:24:50.048Z,71.26
2018-07-11T06:25:59.791Z,70.98
2018-07-11T06:27:09.544Z,71.66
2018-07-11T06:28:19.295Z,71.84
2018-07-11T06:29:29.321Z,71.26
2018-07-11T06:30:39.132Z,71.66
2018-07-11T06:31:48.897Z,71.46
2018-07-11T06:32:58.913Z,71.01
2018-07-11T06:34:08.930Z,71.11
2018-07-11T06:35:18.949Z,71.01
2018-07-11T06:36:28.974Z,71.3
2018-07-11T06:37:38.988Z,71.98
2018-07-11T06:38:49.032Z,71.98
2018-07-11T06:39:59.047Z,71.88
2018-07-11T06:41:09.048Z,71.98
2018-07-11T06:42:19.056Z,71.69
2018-07-11T06:43:29.088Z,72.27
2018-07-11T06:44:38.841Z,71.98
2018-07-11T06:45:48.592Z,72.27
2018-07-11T06:46:58.598Z,72.36
2018-07-11T06:48:08.602Z,71.88
2018-07-11T06:49:18.614Z,71.78
2018-07-11T06:50:28.621Z,71.5
2018-07-11T06:51:38.373Z,71.78
2018-07-11T06:52:48.146Z,71.5
2018-07-11T06:53:58.176Z,71.34
2018-07-11T06:55:08.191Z,71.24
2018-07-11T06:56:17.935Z,71.53
2018-07-11T06:57:27.962Z,70.76
2018-07-11T06:58:38.208Z,70.7
2018-07-11T06:59:47.965Z,70.5
2018-07-11T07:00:57.728Z,70.25
2018-07-11T07:02:07.766Z,69.57
2018-07-11T07:03:17.537Z,70.44
2018-07-11T07:04:27.608Z,69.99
2018-07-11T07:05:37.626Z,70.18
2018-07-11T07:06:47.642Z,70.09
2018-07-11T07:07:56.916Z,69.83
2018-07-11T07:09:06.420Z,70.12
2018-07-11T07:10:16.444Z,69.54
2018-07-11T07:11:26.204Z,69.28
2018-07-11T07:12:36.225Z,69.22
2018-07-11T07:13:46.237Z,68.93
2018-07-11T07:14:56.009Z,69.25
2018-07-11T07:16:06.040Z,69.15
2018-07-11T07:17:16.053Z,69.35
2018-07-11T07:18:25.825Z,69.64
2018-07-11T07:19:35.582Z,69.35
2018-07-11T07:20:45.586Z,69.64
2018-07-11T07:21:55.600Z,69.84
2018-07-11T07:23:05.608Z,69.93
2018-07-11T07:24:15.357Z,69.84
2018-07-11T07:25:25.381Z,69.35
2018-07-11T07:26:35.143Z,69.64
2018-07-11T07:27:45.211Z,69.45
2018-07-11T07:28:54.966Z,69.35
2018-07-11T07:30:05.096Z,69.67
2018-07-11T07:31:15.113Z,69.29
2018-07-11T07:32:24.865Z,69.29
2018-07-11T07:33:34.880Z,69.22
2018-07-11T07:34:44.973Z,69.42
2018-07-11T07:35:55.025Z,69.48
2018-07-11T07:37:05.030Z,69.48
2018-07-11T07:38:14.792Z,69.48
2018-07-11T07:39:24.594Z,69.67
2018-07-11T07:40:34.360Z,69.13
2018-07-11T07:41:44.381Z,68.74
2018-07-11T07:42:54.398Z,68.87
2018-07-11T07:44:04.410Z,68.67
2018-07-11T07:45:14.436Z,68.77
2018-07-11T07:46:24.470Z,68.87
2018-07-11T07:47:34.485Z,69.26
2018-07-11T07:48:44.493Z,69.55
2018-07-11T07:49:54.258Z,69.51
2018-07-11T07:51:04.283Z,69.42
2018-07-11T07:52:14.298Z,69.51
2018-07-11T07:53:24.301Z,69.61
2018-07-11T07:54:33.804Z,69.42
2018-07-11T07:55:43.805Z,69.35
2018-07-11T07:56:53.310Z,68.87
2018-07-11T07:58:03.336Z,68.41
2018-07-11T07:59:13.335Z,68.41
2018-07-11T08:00:23.161Z,68.8
2018-07-11T08:01:33.389Z,68.8
2018-07-11T08:02:43.395Z,68.8
2018-07-11T08:03:53.156Z,69
2018-07-11T08:05:03.158Z,69
2018-07-11T08:06:13.170Z,69.39
2018-07-11T08:07:22.932Z,69.1
2018-07-11T08:08:33.006Z,69
2018-07-11T08:09:43.033Z,68.64
2018-07-11T08:10:52.792Z,68.64
2018-07-11T08:12:02.810Z,68.87
2018-07-11T08:13:12.823Z,68.68
2018-07-11T08:14:22.843Z,68.58
2018-07-11T08:15:32.349Z,68.52
2018-07-11T08:16:42.354Z,68.32
2018-07-11T08:17:52.365Z,68.42
2018-07-11T08:19:02.367Z,68.16
2018-07-11T08:20:12.382Z,68.94
2018-07-11T08:21:22.282Z,68.35
2018-07-11T08:22:32.569Z,68.65
2018-07-11T08:23:42.326Z,68.35
2018-07-11T08:24:52.333Z,69.04
2018-07-11T08:26:02.362Z,68.8
2018-07-11T08:27:12.563Z,69.1
2018-07-11T08:28:22.848Z,69.36
2018-07-11T08:29:32.869Z,69.46
2018-07-11T08:30:42.627Z,69.46
2018-07-11T08:31:52.385Z,69.75
2018-07-11T08:33:02.414Z,69.84
2018-07-11T08:34:12.177Z,69.75
2018-07-11T08:35:22.184Z,69.46
2018-07-11T08:36:31.947Z,69.17
2018-07-11T08:37:41.963Z,69.07
2018-07-11T08:38:51.734Z,69.07
2018-07-11T08:40:01.510Z,69.07
2018-07-11T08:41:11.528Z,68.97
2018-07-11T08:42:21.600Z,69
2018-07-11T08:43:31.600Z,68.13
2018-07-11T08:44:41.658Z,68.52
2018-07-11T08:45:51.419Z,68.45
2018-07-11T08:47:01.441Z,68.55
2018-07-11T08:48:11.750Z,68.77
2018-07-11T08:49:21.696Z,68.19
2018-07-11T08:50:31.202Z,68.49
2018-07-11T08:51:40.956Z,68.77
2018-07-11T08:52:50.974Z,68.39
2018-07-11T08:54:01.097Z,68.19
2018-07-11T08:55:11.363Z,68.35
2018-07-11T08:56:21.556Z,68.94
2018-07-11T08:57:31.579Z,68.9
2018-07-11T08:58:41.598Z,69
2018-07-11T08:59:51.606Z,68.9
2018-07-11T09:01:01.633Z,69.07
2018-07-11T09:02:11.483Z,69.46
2018-07-11T09:03:21.506Z,69.36
2018-07-11T09:04:31.529Z,69.56
2018-07-11T09:05:41.292Z,69.71
2018-07-11T09:06:51.315Z,70.07
2018-07-11T09:08:01.148Z,69.87
2018-07-11T09:09:10.708Z,69.87
2018-07-11T09:10:20.459Z,69.97
2018-07-11T09:11:30.543Z,69.87
2018-07-11T09:12:40.309Z,69.87
2018-07-11T09:13:50.113Z,69.87
2018-07-11T09:15:00.126Z,70.07
2018-07-11T09:16:10.148Z,69.68
2018-07-11T09:17:20.164Z,69.58
2018-07-11T09:18:30.181Z,69.87
2018-07-11T09:19:40.204Z,69.39
2018-07-11T09:20:50.217Z,69.39
2018-07-11T09:21:59.457Z,69.42
2018-07-11T09:23:09.484Z,69.03
2018-07-11T09:24:19.642Z,69.13
2018-07-11T09:25:29.650Z,68.74
2018-07-11T09:26:39.675Z,68.93
2018-07-11T09:27:49.683Z,69.03
2018-07-11T09:28:59.442Z,69.23
2018-07-11T09:30:09.447Z,68.93
2018-07-11T09:31:19.475Z,69.32
2018-07-11T09:32:29.458Z,68.97
2018-07-11T09:33:39.481Z,68.93
2018-07-11T09:34:49.481Z,68.97
2018-07-11T09:35:59.239Z,68.64
2018-07-11T09:37:09.267Z,69.26
2018-07-11T09:38:19.284Z,69.03
2018-07-11T09:39:28.787Z,69.26
2018-07-11T09:40:38.543Z,68.87
2018-07-11T09:41:48.569Z,68.87
2018-07-11T09:42:58.584Z,69
2018-07-11T09:44:08.597Z,69.1
2018-07-11T09:45:18.617Z,69
2018-07-11T09:46:28.715Z,69.04
2018-07-11T09:47:38.471Z,69
2018-07-11T09:48:48.016Z,68.65
2018-07-11T09:49:57.519Z,69.23
2018-07-11T09:51:07.535Z,69.13
2018-07-11T09:52:17.674Z,69.04
2018-07-11T09:53:28.003Z,69.04
2018-07-11T09:54:37.774Z,69.13
2018-07-11T09:55:47.792Z,69.43
2018-07-11T09:56:57.814Z,69.39
2018-07-11T09:58:07.559Z,69.98
2018-07-11T09:59:17.586Z,69.98
2018-07-11T10:00:27.641Z,69.78
2018-07-11T10:01:37.661Z,69.78
2018-07-11T10:02:47.184Z,69.78
2018-07-11T10:03:56.666Z,69.59
2018-07-11T10:05:06.727Z,69.59
2018-07-11T10:06:16.635Z,69.29
2018-07-11T10:07:26.415Z,69.23
2018-07-11T10:08:36.424Z,69.53
2018-07-11T10:09:46.429Z,69.62
2018-07-11T10:10:56.451Z,70.01
2018-07-11T10:12:06.227Z,70.01
2018-07-11T10:13:15.992Z,69.59
2018-07-11T10:14:25.755Z,70.47
2018-07-11T10:15:35.782Z,70.27
2018-07-11T10:16:45.788Z,70.33
2018-07-11T10:17:55.852Z,70.33
2018-07-11T10:19:05.857Z,70.62
2018-07-11T10:20:15.875Z,70.43
2018-07-11T10:21:25.885Z,70.23
2018-07-11T10:22:36.013Z,70.62
2018-07-11T10:23:45.803Z,70.78
2018-07-11T10:24:55.801Z,70.5
2018-07-11T10:26:05.881Z,70.2
2018-07-11T10:27:15.902Z,70.53
2018-07-11T10:28:25.927Z,70.4
2018-07-11T10:29:35.963Z,69.91
2018-07-11T10:30:45.973Z,69.94
2018-07-11T10:31:56.059Z,69.75
2018-07-11T10:33:06.076Z,69.65
2018-07-11T10:34:16.121Z,69.94
2018-07-11T10:35:26.167Z,69.56
2018-07-11T10:36:35.954Z,69.17
2018-07-11T10:37:45.962Z,69.49
2018-07-11T10:38:55.978Z,69.2
2018-07-11T10:40:06.177Z,69.29
2018-07-11T10:41:16.187Z,68.8
2018-07-11T10:42:26.202Z,69.04
2018-07-11T10:43:36.204Z,69.13
2018-07-11T10:44:45.965Z,69.26
2018-07-11T10:45:56.115Z,68.77
2018-07-11T10:47:06.136Z,69.07
2018-07-11T10:48:16.153Z,68.49
2018-07-11T10:49:25.898Z,68.52
2018-07-11T10:50:36.044Z,68.71
2018-07-11T10:51:46.237Z,68.42
2018-07-11T10:52:56.261Z,68.26
2018-07-11T10:54:06.282Z,68.55
2018-07-11T10:55:16.292Z,68.26
2018-07-11T10:56:26.047Z,68.68
2018-07-11T10:57:36.219Z,68.16
2018-07-11T10:58:46.279Z,68.13
2018-07-11T10:59:56.293Z,67.83
2018-07-11T11:01:08.483Z,68.07
2018-07-11T11:02:18.952Z,68.07
2018-07-11T11:03:28.972Z,67.77
2018-07-11T11:04:38.727Z,67.71
2018-07-11T11:05:48.894Z,68
2018-07-11T11:06:58.700Z,67.71
2018-07-11T11:08:08.521Z,68.65
2018-07-11T11:09:18.674Z,68.32
2018-07-11T11:10:28.446Z,69.07
2018-07-11T11:11:38.524Z,69.07
2018-07-11T11:12:48.584Z,69.43
2018-07-11T11:13:58.343Z,69.59
2018-07-11T11:15:08.360Z,69.69
2018-07-11T11:16:18.363Z,69.3
2018-07-11T11:17:28.379Z,69.49
2018-07-11T11:18:38.407Z,69.79
2018-07-11T11:19:48.435Z,69.59
2018-07-11T11:20:58.460Z,69.43
2018-07-11T11:22:07.981Z,69.24
2018-07-11T11:23:17.742Z,69.1
2018-07-11T11:24:27.760Z,69.14
2018-07-11T11:25:37.901Z,68.36
2018-07-11T11:26:48.294Z,68.19
2018-07-11T11:27:58.299Z,68.52
2018-07-11T11:29:07.800Z,68.62
2018-07-11T11:30:17.849Z,67.93
2018-07-11T11:31:27.621Z,67.97
2018-07-11T11:32:37.397Z,68.1
2018-07-11T11:33:47.166Z,67.8
2018-07-11T11:34:57.195Z,67.84
2018-07-11T11:36:06.699Z,67.44
2018-07-11T11:37:16.725Z,67.19
2018-07-11T11:38:26.496Z,67.22
2018-07-11T11:39:36.261Z,67.12
2018-07-11T11:40:46.282Z,67.12
2018-07-11T11:41:56.145Z,67.41
2018-07-11T11:43:06.858Z,67.71
2018-07-11T11:44:16.612Z,67.9
2018-07-11T11:45:26.621Z,68.16
2018-07-11T11:46:36.119Z,68.36
2018-07-11T11:47:45.873Z,68.72
2018-07-11T11:48:55.890Z,68.72
2018-07-11T11:50:05.918Z,68.82
2018-07-11T11:51:15.693Z,68.75
2018-07-11T11:52:25.720Z,68.46
2018-07-11T11:53:35.729Z,68.23
2018-07-11T11:54:45.759Z,67.97
2018-07-11T11:55:55.795Z,67.77
2018-07-11T11:57:05.855Z,67.71
2018-07-11T11:58:15.888Z,68.3
2018-07-11T11:59:25.903Z,68.3
2018-07-11T12:00:35.924Z,68
2018-07-11T12:01:45.760Z,67.8
2018-07-11T12:02:56.081Z,68.23
2018-07-11T12:04:05.852Z,67.8
2018-07-11T12:05:15.406Z,67.8
2018-07-11T12:06:25.421Z,68.49
2018-07-11T12:07:35.447Z,68.16
2018-07-11T12:08:45.466Z,68.75
2018-07-11T12:09:55.482Z,68.75
2018-07-11T12:11:05.552Z,68.46
2018-07-11T12:12:15.676Z,68.82
2018-07-11T12:13:25.695Z,69.31
2018-07-11T12:14:35.761Z,68.49
2018-07-11T12:15:45.772Z,69.08
2018-07-11T12:16:55.783Z,68.78
2018-07-11T12:18:05.811Z,69.27
2018-07-11T12:19:15.838Z,69.14
2018-07-11T12:20:25.620Z,69.24
2018-07-11T12:21:35.929Z,69.34
2018-07-11T12:22:45.985Z,69.34
2018-07-11T12:23:55.988Z,69.34
2018-07-11T12:25:05.756Z,69.24
2018-07-11T12:26:15.533Z,69.34
2018-07-11T12:27:25.553Z,68.95
2018-07-11T12:28:35.597Z,69.43
2018-07-11T12:29:45.617Z,68.85
2018-07-11T12:30:55.688Z,69.34
2018-07-11T12:32:05.738Z,69.4
2018-07-11T12:33:15.742Z,69.6
2018-07-11T12:34:25.494Z,69.89
2018-07-11T12:35:35.516Z,69.85
2018-07-11T12:36:45.577Z,70.34
2018-07-11T12:37:55.590Z,70.61
2018-07-11T12:39:05.629Z,70.31
2018-07-11T12:40:15.460Z,70.28
2018-07-11T12:41:25.463Z,70.57
2018-07-11T12:42:35.492Z,69.49
2018-07-11T12:43:44.987Z,70.18
2018-07-11T12:44:54.743Z,69.63
2018-07-11T12:46:04.771Z,69.14
2018-07-11T12:47:14.783Z,69.17
2018-07-11T12:48:24.575Z,68.32
2018-07-11T12:49:34.599Z,67.87
2018-07-11T12:50:44.628Z,67.8
2018-07-11T12:51:54.698Z,68
2018-07-11T12:53:04.715Z,67.84
2018-07-11T12:54:14.734Z,67.77
2018-07-11T12:55:24.486Z,67.77
2018-07-11T12:56:34.246Z,67.19
2018-07-11T12:57:44.270Z,67.02
2018-07-11T12:58:54.031Z,67.22
2018-07-11T13:00:04.074Z,67.22
2018-07-11T13:01:14.114Z,66.96
2018-07-11T13:02:23.624Z,67.32
2018-07-11T13:03:33.654Z,67.51
2018-07-11T13:04:43.689Z,67.8
2018-07-11T13:05:53.489Z,67.58
2018-07-11T13:07:03.525Z,67.87
2018-07-11T13:08:13.538Z,68.52
2018-07-11T13:09:23.292Z,68.62
2018-07-11T13:10:33.064Z,68.88
2018-07-11T13:11:42.826Z,68.39
2018-07-11T13:12:52.871Z,68.68
2018-07-11T13:14:02.892Z,68.68
2018-07-11T13:15:12.413Z,68.88
2018-07-11T13:16:22.780Z,68.68
2018-07-11T13:17:32.974Z,68.49
2018-07-11T13:18:42.981Z,68.91
2018-07-11T13:19:53.007Z,68.82
2018-07-11T13:21:02.773Z,69.01
2018-07-11T13:22:12.555Z,69.37
2018-07-11T13:23:22.583Z,69.34
2018-07-11T13:24:32.655Z,69.53
2018-07-11T13:25:42.776Z,68.75
2018-07-11T13:26:52.811Z,69.24
2018-07-11T13:28:02.573Z,69.24
2018-07-11T13:29:12.366Z,69.21
2018-07-11T13:30:22.414Z,69.21
2018-07-11T13:31:32.435Z,69.4
2018-07-11T13:32:42.473Z,68.62
2018-07-11T13:33:52.492Z,68.23
2018-07-11T13:35:02.510Z,68.95
2018-07-11T13:36:12.532Z,68.85
2018-07-11T13:37:22.572Z,68.36
2018-07-11T13:38:32.384Z,68.65
2018-07-11T13:39:42.420Z,68.95
2018-07-11T13:40:52.172Z,68.55
2018-07-11T13:42:02.211Z,68.75
2018-07-11T13:43:12.239Z,68.36
2018-07-11T13:44:22.262Z,68.85
2018-07-11T13:45:32.030Z,68.62
2018-07-11T13:46:41.529Z,68.65
2018-07-11T13:47:51.551Z,68.46
2018-07-11T13:49:01.584Z,68.65
2018-07-11T13:50:11.606Z,68.75
2018-07-11T13:51:21.622Z,68.36
2018-07-11T13:52:31.630Z,68.26
2018-07-11T13:53:41.409Z,68.39
2018-07-11T13:54:50.907Z,68.65
2018-07-11T13:56:00.155Z,68.46
2018-07-11T13:57:09.701Z,68.85
2018-07-11T13:58:18.966Z,68.71
2018-07-11T13:59:28.730Z,68.82
2018-07-11T14:00:38.485Z,68.52
2018-07-11T14:01:48.502Z,68.62
2018-07-11T14:02:58.017Z,68.71
2018-07-11T14:04:08.038Z,68.52
2018-07-11T14:05:18.110Z,68.91
2018-07-11T14:06:28.119Z,68.52
2018-07-11T14:07:38.358Z,68.39
2018-07-11T14:08:48.380Z,69.27
2018-07-11T14:09:58.395Z,68.55
2018-07-11T14:11:08.403Z,68.75
2018-07-11T14:12:17.911Z,69.3
2018-07-11T14:13:27.941Z,68.91
2018-07-11T14:14:37.981Z,68.87
2018-07-11T14:15:47.734Z,69.56
2018-07-11T14:16:57.774Z,69.56
2018-07-11T14:18:07.803Z,69.53
2018-07-11T14:19:17.576Z,69.98
2018-07-11T14:20:27.946Z,70.17
2018-07-11T14:21:37.870Z,70.62
2018-07-11T14:22:47.633Z,70.33
2018-07-11T14:23:57.652Z,70.2
2018-07-11T14:25:07.708Z,70.4
2018-07-11T14:26:17.731Z,70.78
2018-07-11T14:27:27.764Z,70.75
2018-07-11T14:28:37.829Z,70.75
2018-07-11T14:29:47.968Z,70.75
2018-07-11T14:30:58.018Z,70.75
2018-07-11T14:32:08.039Z,70.72
2018-07-11T14:33:18.080Z,70.81
2018-07-11T14:34:28.112Z,70.91
2018-07-11T14:35:37.634Z,70.78
2018-07-11T14:36:47.420Z,70.49
2018-07-11T14:37:57.450Z,69.94
2018-07-11T14:39:07.477Z,70.13
2018-07-11T14:40:17.543Z,70.42
2018-07-11T14:41:27.557Z,70.04
2018-07-11T14:42:37.583Z,70.52
2018-07-11T14:43:47.593Z,70.13
2018-07-11T14:44:57.350Z,70.72
2018-07-11T14:46:07.159Z,70.42
2018-07-11T14:47:17.195Z,70.78
2018-07-11T14:48:27.212Z,70.52
2018-07-11T14:49:36.728Z,70.78
2018-07-11T14:50:46.748Z,71.26
2018-07-11T14:51:56.772Z,70.94
2018-07-11T14:53:06.794Z,71.52
2018-07-11T14:54:16.552Z,71.39
2018-07-11T14:55:26.552Z,72.13
2018-07-11T14:56:36.571Z,72.13
2018-07-11T14:57:46.597Z,72.39
2018-07-11T14:58:56.351Z,72.16
2018-07-11T15:00:06.359Z,72.74
2018-07-11T15:01:16.179Z,72.8
2018-07-11T15:02:26.206Z,73.09
2018-07-11T15:03:36.267Z,72.57
2018-07-11T15:04:46.296Z,72.47
2018-07-11T15:05:56.059Z,72.86
2018-07-11T15:07:05.819Z,72.86
2018-07-11T15:08:15.383Z,72.86
2018-07-11T15:09:27.086Z,73.02
2018-07-11T15:10:37.475Z,72.83
2018-07-11T15:11:47.515Z,72.79
2018-07-11T15:12:57.277Z,72.79
2018-07-11T15:14:07.300Z,72.69
2018-07-11T15:15:17.313Z,72.69
2018-07-11T15:16:27.344Z,72.56
2018-07-11T15:17:37.386Z,72.66
2018-07-11T15:18:47.413Z,72.36
2018-07-11T15:19:57.156Z,72.36
2018-07-11T15:21:06.931Z,71.98
2018-07-11T15:22:16.964Z,71.88
2018-07-11T15:23:26.977Z,71.88
2018-07-11T15:24:36.992Z,72.17
2018-07-11T15:25:46.750Z,72.36
2018-07-11T15:26:56.256Z,72.27
2018-07-11T15:28:06.283Z,72.27
2018-07-11T15:29:16.303Z,72.27
2018-07-11T15:30:26.360Z,72.36
2018-07-11T15:31:36.369Z,71.98
2018-07-11T15:32:46.544Z,72.27
2018-07-11T15:33:56.567Z,71.98
2018-07-11T15:35:06.999Z,72.46
2018-07-11T15:36:17.115Z,72.08
2018-07-11T15:37:26.874Z,72.27